sensor_id;sensor_type;location;lat;lon;timestamp;P1;durP1;ratioP1;P2;durP2;ratioP2
65358;SDS011;52491;45.900;6.346;2023-03-01T00:02:02;9.27;;;8.30;;
65358;SDS011;52491;45.900;6.346;2023-03-01T00:04:27;11.95;;;8.18;;
65358;SDS011;52491;45.900;6.346;2023-03-01T00:06:53;9.45;;;8.45;;
65358;SDS011;52491;45.900;6.346;2023-03-01T00:09:19;10.60;;;9.02;;
65358;SDS011;52491;45.900;6.346;2023-03-01T00:11:45;10.00;;;8.57;;
65358;SDS011;52491;45.900;6.346;2023-03-01T00:14:10;8.98;;;7.75;;
65358;SDS011;52491;45.900;6.346;2023-03-01T00:16:38;9.65;;;8.52;;
65358;SDS011;52491;45.900;6.346;2023-03-01T00:19:09;10.05;;;8.35;;
65358;SDS011;52491;45.900;6.346;2023-03-01T00:21:38;9.68;;;7.53;;
65358;SDS011;52491;45.900;6.346;2023-03-01T00:24:04;9.27;;;8.13;;
65358;SDS011;52491;45.900;6.346;2023-03-01T00:26:30;11.63;;;9.48;;
65358;SDS011;52491;45.900;6.346;2023-03-01T00:28:56;12.73;;;8.18;;
65358;SDS011;52491;45.900;6.346;2023-03-01T00:31:24;9.63;;;8.70;;
65358;SDS011;52491;45.900;6.346;2023-03-01T00:33:58;9.00;;;8.07;;
65358;SDS011;52491;45.900;6.346;2023-03-01T00:36:26;9.25;;;7.90;;
65358;SDS011;52491;45.900;6.346;2023-03-01T00:38:54;9.73;;;8.15;;
65358;SDS011;52491;45.900;6.346;2023-03-01T00:41:20;9.38;;;8.18;;
65358;SDS011;52491;45.900;6.346;2023-03-01T00:43:47;8.60;;;7.28;;
65358;SDS011;52491;45.900;6.346;2023-03-01T00:46:15;9.48;;;8.05;;
65358;SDS011;52491;45.900;6.346;2023-03-01T00:48:42;10.25;;;8.00;;
65358;SDS011;52491;45.900;6.346;2023-03-01T00:51:09;10.90;;;8.27;;
65358;SDS011;52491;45.900;6.346;2023-03-01T00:53:42;9.27;;;7.03;;
65358;SDS011;52491;45.900;6.346;2023-03-01T00:56:10;9.95;;;7.82;;
65358;SDS011;52491;45.900;6.346;2023-03-01T00:58:36;10.93;;;8.25;;
65358;SDS011;52491;45.900;6.346;2023-03-01T01:01:09;8.93;;;7.63;;
65358;SDS011;52491;45.900;6.346;2023-03-01T01:03:52;10.15;;;8.18;;
65358;SDS011;52491;45.900;6.346;2023-03-01T01:06:23;10.77;;;8.90;;
65358;SDS011;52491;45.900;6.346;2023-03-01T01:08:51;8.40;;;7.05;;
65358;SDS011;52491;45.900;6.346;2023-03-01T01:11:17;9.10;;;7.80;;
65358;SDS011;52491;45.900;6.346;2023-03-01T01:13:44;10.82;;;8.13;;
65358;SDS011;52491;45.900;6.346;2023-03-01T01:16:11;10.65;;;8.32;;
65358;SDS011;52491;45.900;6.346;2023-03-01T01:18:37;7.97;;;7.18;;
65358;SDS011;52491;45.900;6.346;2023-03-01T01:21:07;10.25;;;7.90;;
65358;SDS011;52491;45.900;6.346;2023-03-01T01:23:34;7.60;;;6.75;;
65358;SDS011;52491;45.900;6.346;2023-03-01T01:26:07;10.13;;;8.30;;
65358;SDS011;52491;45.900;6.346;2023-03-01T01:28:35;9.02;;;8.07;;
65358;SDS011;52491;45.900;6.346;2023-03-01T01:31:01;10.73;;;8.20;;
65358;SDS011;52491;45.900;6.346;2023-03-01T01:33:26;11.55;;;8.98;;
65358;SDS011;52491;45.900;6.346;2023-03-01T01:35:52;8.65;;;7.25;;
65358;SDS011;52491;45.900;6.346;2023-03-01T01:38:18;9.60;;;7.82;;
65358;SDS011;52491;45.900;6.346;2023-03-01T01:40:46;8.98;;;7.28;;
65358;SDS011;52491;45.900;6.346;2023-03-01T01:43:24;8.75;;;7.38;;
65358;SDS011;52491;45.900;6.346;2023-03-01T01:45:50;10.38;;;8.07;;
65358;SDS011;52491;45.900;6.346;2023-03-01T01:48:18;9.25;;;7.72;;
65358;SDS011;52491;45.900;6.346;2023-03-01T01:50:48;12.05;;;8.43;;
65358;SDS011;52491;45.900;6.346;2023-03-01T01:53:23;8.68;;;6.95;;
65358;SDS011;52491;45.900;6.346;2023-03-01T01:55:52;10.20;;;8.05;;
65358;SDS011;52491;45.900;6.346;2023-03-01T01:58:22;9.95;;;7.10;;
65358;SDS011;52491;45.900;6.346;2023-03-01T02:00:50;9.02;;;7.57;;
65358;SDS011;52491;45.900;6.346;2023-03-01T02:03:18;12.00;;;8.00;;
65358;SDS011;52491;45.900;6.346;2023-03-01T02:08:20;9.15;;;7.57;;
65358;SDS011;52491;45.900;6.346;2023-03-01T02:10:48;8.60;;;7.75;;
65358;SDS011;52491;45.900;6.346;2023-03-01T02:13:15;9.07;;;7.55;;
65358;SDS011;52491;45.900;6.346;2023-03-01T02:15:41;8.75;;;7.65;;
65358;SDS011;52491;45.900;6.346;2023-03-01T02:18:09;8.57;;;7.72;;
65358;SDS011;52491;45.900;6.346;2023-03-01T02:23:27;9.35;;;8.20;;
65358;SDS011;52491;45.900;6.346;2023-03-01T02:28:33;7.85;;;6.97;;
65358;SDS011;52491;45.900;6.346;2023-03-01T02:31:01;9.25;;;7.38;;
65358;SDS011;52491;45.900;6.346;2023-03-01T02:33:48;8.93;;;8.02;;
65358;SDS011;52491;45.900;6.346;2023-03-01T02:36:15;9.23;;;8.30;;
65358;SDS011;52491;45.900;6.346;2023-03-01T02:38:44;9.40;;;7.22;;
65358;SDS011;52491;45.900;6.346;2023-03-01T02:41:10;9.18;;;7.22;;
65358;SDS011;52491;45.900;6.346;2023-03-01T02:43:39;9.98;;;7.38;;
65358;SDS011;52491;45.900;6.346;2023-03-01T02:46:06;8.90;;;7.70;;
65358;SDS011;52491;45.900;6.346;2023-03-01T02:48:44;7.97;;;6.70;;
65358;SDS011;52491;45.900;6.346;2023-03-01T02:51:18;9.52;;;6.95;;
65358;SDS011;52491;45.900;6.346;2023-03-01T02:56:31;8.07;;;7.35;;
65358;SDS011;52491;45.900;6.346;2023-03-01T02:58:56;10.07;;;7.43;;
65358;SDS011;52491;45.900;6.346;2023-03-01T03:01:26;9.15;;;8.02;;
65358;SDS011;52491;45.900;6.346;2023-03-01T03:04:11;10.65;;;8.65;;
65358;SDS011;52491;45.900;6.346;2023-03-01T03:06:43;8.27;;;7.47;;
65358;SDS011;52491;45.900;6.346;2023-03-01T03:09:09;7.65;;;6.85;;
65358;SDS011;52491;45.900;6.346;2023-03-01T03:11:35;9.98;;;7.93;;
65358;SDS011;52491;45.900;6.346;2023-03-01T03:14:01;9.88;;;8.13;;
65358;SDS011;52491;45.900;6.346;2023-03-01T03:16:27;11.23;;;7.97;;
65358;SDS011;52491;45.900;6.346;2023-03-01T03:18:54;10.13;;;8.13;;
65358;SDS011;52491;45.900;6.346;2023-03-01T03:21:30;8.10;;;7.15;;
65358;SDS011;52491;45.900;6.346;2023-03-01T03:23:56;11.07;;;8.35;;
65358;SDS011;52491;45.900;6.346;2023-03-01T03:26:22;8.80;;;7.40;;
65358;SDS011;52491;45.900;6.346;2023-03-01T03:28:48;9.20;;;7.93;;
65358;SDS011;52491;45.900;6.346;2023-03-01T03:31:14;8.38;;;7.00;;
65358;SDS011;52491;45.900;6.346;2023-03-01T03:33:39;10.15;;;7.68;;
65358;SDS011;52491;45.900;6.346;2023-03-01T03:36:05;9.38;;;8.30;;
65358;SDS011;52491;45.900;6.346;2023-03-01T03:38:31;7.88;;;7.07;;
65358;SDS011;52491;45.900;6.346;2023-03-01T03:41:06;8.65;;;7.65;;
65358;SDS011;52491;45.900;6.346;2023-03-01T03:43:34;9.27;;;7.90;;
65358;SDS011;52491;45.900;6.346;2023-03-01T03:46:01;8.55;;;7.13;;
65358;SDS011;52491;45.900;6.346;2023-03-01T03:48:33;9.55;;;6.93;;
65358;SDS011;52491;45.900;6.346;2023-03-01T03:50:59;8.52;;;7.50;;
65358;SDS011;52491;45.900;6.346;2023-03-01T03:53:25;11.15;;;7.05;;
65358;SDS011;52491;45.900;6.346;2023-03-01T03:55:53;8.68;;;6.63;;
65358;SDS011;52491;45.900;6.346;2023-03-01T03:58:20;7.82;;;6.40;;
65358;SDS011;52491;45.900;6.346;2023-03-01T04:00:48;8.18;;;7.28;;
65358;SDS011;52491;45.900;6.346;2023-03-01T04:03:16;8.55;;;7.00;;
65358;SDS011;52491;45.900;6.346;2023-03-01T04:05:43;7.38;;;6.28;;
65358;SDS011;52491;45.900;6.346;2023-03-01T04:08:09;7.55;;;6.75;;
65358;SDS011;52491;45.900;6.346;2023-03-01T04:10:37;8.23;;;6.72;;
65358;SDS011;52491;45.900;6.346;2023-03-01T04:13:04;6.57;;;5.63;;
65358;SDS011;52491;45.900;6.346;2023-03-01T04:15:32;6.88;;;6.18;;
65358;SDS011;52491;45.900;6.346;2023-03-01T04:17:58;11.02;;;6.03;;
65358;SDS011;52491;45.900;6.346;2023-03-01T04:20:28;10.13;;;6.00;;
65358;SDS011;52491;45.900;6.346;2023-03-01T04:23:17;6.88;;;6.18;;
65358;SDS011;52491;45.900;6.346;2023-03-01T04:25:49;7.18;;;5.78;;
65358;SDS011;52491;45.900;6.346;2023-03-01T04:28:23;7.13;;;6.43;;
65358;SDS011;52491;45.900;6.346;2023-03-01T04:30:49;7.00;;;5.88;;
65358;SDS011;52491;45.900;6.346;2023-03-01T04:33:16;6.38;;;4.97;;
65358;SDS011;52491;45.900;6.346;2023-03-01T04:35:41;7.03;;;5.55;;
65358;SDS011;52491;45.900;6.346;2023-03-01T04:38:07;6.13;;;4.90;;
65358;SDS011;52491;45.900;6.346;2023-03-01T04:40:33;7.68;;;5.32;;
65358;SDS011;52491;45.900;6.346;2023-03-01T04:43:00;7.07;;;5.13;;
65358;SDS011;52491;45.900;6.346;2023-03-01T04:45:26;5.65;;;4.55;;
65358;SDS011;52491;45.900;6.346;2023-03-01T04:47:51;6.43;;;4.95;;
65358;SDS011;52491;45.900;6.346;2023-03-01T04:50:19;5.88;;;5.20;;
65358;SDS011;52491;45.900;6.346;2023-03-01T04:52:47;5.85;;;5.00;;
65358;SDS011;52491;45.900;6.346;2023-03-01T04:55:13;5.13;;;4.63;;
65358;SDS011;52491;45.900;6.346;2023-03-01T04:57:39;6.53;;;5.50;;
65358;SDS011;52491;45.900;6.346;2023-03-01T05:00:05;5.80;;;5.05;;
65358;SDS011;52491;45.900;6.346;2023-03-01T05:02:54;5.75;;;4.53;;
65358;SDS011;52491;45.900;6.346;2023-03-01T05:05:33;5.15;;;4.65;;
65358;SDS011;52491;45.900;6.346;2023-03-01T05:08:02;4.70;;;4.07;;
65358;SDS011;52491;45.900;6.346;2023-03-01T05:10:29;5.57;;;5.00;;
65358;SDS011;52491;45.900;6.346;2023-03-01T05:12:57;5.20;;;4.70;;
65358;SDS011;52491;45.900;6.346;2023-03-01T05:15:24;8.80;;;4.63;;
65358;SDS011;52491;45.900;6.346;2023-03-01T05:17:52;6.03;;;5.43;;
65358;SDS011;52491;45.900;6.346;2023-03-01T05:20:19;5.18;;;4.68;;
65358;SDS011;52491;45.900;6.346;2023-03-01T05:22:48;6.40;;;4.47;;
65358;SDS011;52491;45.900;6.346;2023-03-01T05:25:14;4.95;;;4.55;;
65358;SDS011;52491;45.900;6.346;2023-03-01T05:27:40;5.65;;;4.72;;
65358;SDS011;52491;45.900;6.346;2023-03-01T05:30:05;5.60;;;4.88;;
65358;SDS011;52491;45.900;6.346;2023-03-01T05:32:43;6.80;;;4.68;;
65358;SDS011;52491;45.900;6.346;2023-03-01T05:35:11;5.00;;;4.50;;
65358;SDS011;52491;45.900;6.346;2023-03-01T05:37:41;5.25;;;4.68;;
65358;SDS011;52491;45.900;6.346;2023-03-01T05:40:09;5.78;;;4.05;;
65358;SDS011;52491;45.900;6.346;2023-03-01T05:42:47;5.35;;;4.85;;
65358;SDS011;52491;45.900;6.346;2023-03-01T05:45:14;6.00;;;5.00;;
65358;SDS011;52491;45.900;6.346;2023-03-01T05:47:41;4.30;;;3.70;;
65358;SDS011;52491;45.900;6.346;2023-03-01T05:50:18;6.43;;;4.35;;
65358;SDS011;52491;45.900;6.346;2023-03-01T05:52:46;7.05;;;4.28;;
65358;SDS011;52491;45.900;6.346;2023-03-01T05:55:13;4.45;;;4.05;;
65358;SDS011;52491;45.900;6.346;2023-03-01T05:57:40;4.75;;;4.22;;
65358;SDS011;52491;45.900;6.346;2023-03-01T06:00:06;6.53;;;4.50;;
65358;SDS011;52491;45.900;6.346;2023-03-01T06:02:33;5.32;;;4.82;;
65358;SDS011;52491;45.900;6.346;2023-03-01T06:04:58;5.60;;;4.85;;
65358;SDS011;52491;45.900;6.346;2023-03-01T06:07:24;3.97;;;3.60;;
65358;SDS011;52491;45.900;6.346;2023-03-01T06:09:49;4.90;;;4.40;;
65358;SDS011;52491;45.900;6.346;2023-03-01T06:12:15;4.85;;;4.35;;
65358;SDS011;52491;45.900;6.346;2023-03-01T06:14:40;5.10;;;4.25;;
65358;SDS011;52491;45.900;6.346;2023-03-01T06:17:06;3.97;;;3.58;;
65358;SDS011;52491;45.900;6.346;2023-03-01T06:19:32;4.45;;;3.78;;
65358;SDS011;52491;45.900;6.346;2023-03-01T06:21:57;7.40;;;5.65;;
65358;SDS011;52491;45.900;6.346;2023-03-01T06:24:23;4.97;;;4.30;;
65358;SDS011;52491;45.900;6.346;2023-03-01T06:26:49;6.45;;;4.20;;
65358;SDS011;52491;45.900;6.346;2023-03-01T06:29:15;4.78;;;4.28;;
65358;SDS011;52491;45.900;6.346;2023-03-01T06:31:40;3.95;;;3.47;;
65358;SDS011;52491;45.900;6.346;2023-03-01T06:34:06;4.65;;;4.18;;
65358;SDS011;52491;45.900;6.346;2023-03-01T06:36:31;4.32;;;3.78;;
65358;SDS011;52491;45.900;6.346;2023-03-01T06:38:57;4.47;;;3.92;;
65358;SDS011;52491;45.900;6.346;2023-03-01T06:41:22;4.30;;;3.90;;
65358;SDS011;52491;45.900;6.346;2023-03-01T06:43:48;4.82;;;4.10;;
65358;SDS011;52491;45.900;6.346;2023-03-01T06:46:13;5.90;;;4.00;;
65358;SDS011;52491;45.900;6.346;2023-03-01T06:48:39;7.03;;;4.43;;
65358;SDS011;52491;45.900;6.346;2023-03-01T06:51:05;7.88;;;4.60;;
65358;SDS011;52491;45.900;6.346;2023-03-01T06:53:30;3.70;;;3.30;;
65358;SDS011;52491;45.900;6.346;2023-03-01T06:55:56;4.60;;;3.60;;
65358;SDS011;52491;45.900;6.346;2023-03-01T06:58:24;5.05;;;3.78;;
65358;SDS011;52491;45.900;6.346;2023-03-01T07:00:49;6.25;;;3.72;;
65358;SDS011;52491;45.900;6.346;2023-03-01T07:03:15;4.30;;;3.90;;
65358;SDS011;52491;45.900;6.346;2023-03-01T07:05:40;4.68;;;3.35;;
65358;SDS011;52491;45.900;6.346;2023-03-01T07:08:06;8.23;;;3.38;;
65358;SDS011;52491;45.900;6.346;2023-03-01T07:10:32;6.13;;;3.25;;
65358;SDS011;52491;45.900;6.346;2023-03-01T07:12:57;5.32;;;3.10;;
65358;SDS011;52491;45.900;6.346;2023-03-01T07:15:24;4.10;;;2.95;;
65358;SDS011;52491;45.900;6.346;2023-03-01T07:17:51;6.35;;;3.15;;
65358;SDS011;52491;45.900;6.346;2023-03-01T07:20:17;5.55;;;3.80;;
65358;SDS011;52491;45.900;6.346;2023-03-01T07:22:46;3.78;;;3.47;;
65358;SDS011;52491;45.900;6.346;2023-03-01T07:25:11;3.78;;;3.22;;
65358;SDS011;52491;45.900;6.346;2023-03-01T07:27:37;3.95;;;3.25;;
65358;SDS011;52491;45.900;6.346;2023-03-01T07:30:03;6.18;;;3.83;;
65358;SDS011;52491;45.900;6.346;2023-03-01T07:32:29;3.70;;;3.25;;
65358;SDS011;52491;45.900;6.346;2023-03-01T07:34:54;3.25;;;2.95;;
65358;SDS011;52491;45.900;6.346;2023-03-01T07:37:20;4.13;;;3.55;;
65358;SDS011;52491;45.900;6.346;2023-03-01T07:39:45;6.18;;;3.72;;
65358;SDS011;52491;45.900;6.346;2023-03-01T07:42:11;4.68;;;4.10;;
65358;SDS011;52491;45.900;6.346;2023-03-01T07:44:36;8.45;;;4.63;;
65358;SDS011;52491;45.900;6.346;2023-03-01T07:47:03;5.50;;;4.78;;
65358;SDS011;52491;45.900;6.346;2023-03-01T07:49:29;5.95;;;4.90;;
65358;SDS011;52491;45.900;6.346;2023-03-01T07:51:54;4.95;;;4.45;;
65358;SDS011;52491;45.900;6.346;2023-03-01T07:54:21;6.68;;;5.78;;
65358;SDS011;52491;45.900;6.346;2023-03-01T07:56:47;5.82;;;4.63;;
65358;SDS011;52491;45.900;6.346;2023-03-01T07:59:12;5.40;;;4.70;;
65358;SDS011;52491;45.900;6.346;2023-03-01T08:01:38;5.57;;;4.80;;
65358;SDS011;52491;45.900;6.346;2023-03-01T08:04:04;6.35;;;4.82;;
65358;SDS011;52491;45.900;6.346;2023-03-01T08:06:33;4.90;;;4.38;;
65358;SDS011;52491;45.900;6.346;2023-03-01T08:08:59;6.70;;;4.90;;
65358;SDS011;52491;45.900;6.346;2023-03-01T08:11:25;6.50;;;4.95;;
65358;SDS011;52491;45.900;6.346;2023-03-01T08:13:53;5.72;;;4.85;;
65358;SDS011;52491;45.900;6.346;2023-03-01T08:16:19;5.00;;;4.35;;
65358;SDS011;52491;45.900;6.346;2023-03-01T08:18:45;4.93;;;4.18;;
65358;SDS011;52491;45.900;6.346;2023-03-01T08:21:12;4.78;;;4.22;;
65358;SDS011;52491;45.900;6.346;2023-03-01T08:23:40;6.15;;;4.53;;
65358;SDS011;52491;45.900;6.346;2023-03-01T08:26:13;5.70;;;4.88;;
65358;SDS011;52491;45.900;6.346;2023-03-01T08:28:41;4.90;;;4.10;;
65358;SDS011;52491;45.900;6.346;2023-03-01T08:31:14;4.80;;;4.40;;
65358;SDS011;52491;45.900;6.346;2023-03-01T08:33:41;5.10;;;4.38;;
65358;SDS011;52491;45.900;6.346;2023-03-01T08:36:07;5.30;;;4.78;;
65358;SDS011;52491;45.900;6.346;2023-03-01T08:38:33;4.53;;;4.13;;
65358;SDS011;52491;45.900;6.346;2023-03-01T08:41:00;4.78;;;3.97;;
65358;SDS011;52491;45.900;6.346;2023-03-01T08:43:27;6.03;;;4.10;;
65358;SDS011;52491;45.900;6.346;2023-03-01T08:45:52;6.00;;;3.88;;
65358;SDS011;52491;45.900;6.346;2023-03-01T08:48:18;4.18;;;3.78;;
65358;SDS011;52491;45.900;6.346;2023-03-01T08:50:43;4.68;;;4.15;;
65358;SDS011;52491;45.900;6.346;2023-03-01T08:53:09;4.47;;;3.35;;
65358;SDS011;52491;45.900;6.346;2023-03-01T08:55:35;4.82;;;4.10;;
65358;SDS011;52491;45.900;6.346;2023-03-01T08:58:00;5.10;;;3.90;;
65358;SDS011;52491;45.900;6.346;2023-03-01T09:00:26;5.30;;;3.97;;
65358;SDS011;52491;45.900;6.346;2023-03-01T09:02:51;4.85;;;3.92;;
65358;SDS011;52491;45.900;6.346;2023-03-01T09:05:17;3.72;;;3.38;;
65358;SDS011;52491;45.900;6.346;2023-03-01T09:07:42;6.00;;;3.60;;
65358;SDS011;52491;45.900;6.346;2023-03-01T09:10:08;3.95;;;3.58;;
65358;SDS011;52491;45.900;6.346;2023-03-01T09:15:00;3.55;;;3.15;;
65358;SDS011;52491;45.900;6.346;2023-03-01T09:17:26;4.22;;;3.45;;
65358;SDS011;52491;45.900;6.346;2023-03-01T09:19:51;3.97;;;3.50;;
65358;SDS011;52491;45.900;6.346;2023-03-01T09:22:17;3.90;;;3.10;;
65358;SDS011;52491;45.900;6.346;2023-03-01T09:24:42;3.42;;;3.08;;
65358;SDS011;52491;45.900;6.346;2023-03-01T09:27:08;2.92;;;2.70;;
65358;SDS011;52491;45.900;6.346;2023-03-01T09:29:37;3.63;;;3.28;;
65358;SDS011;52491;45.900;6.346;2023-03-01T09:32:03;4.05;;;3.28;;
65358;SDS011;52491;45.900;6.346;2023-03-01T09:34:29;3.63;;;2.88;;
65358;SDS011;52491;45.900;6.346;2023-03-01T09:36:54;3.30;;;3.00;;
65358;SDS011;52491;45.900;6.346;2023-03-01T09:39:22;3.35;;;3.05;;
65358;SDS011;52491;45.900;6.346;2023-03-01T09:42:00;3.85;;;3.28;;
65358;SDS011;52491;45.900;6.346;2023-03-01T09:44:30;4.22;;;3.05;;
65358;SDS011;52491;45.900;6.346;2023-03-01T09:47:12;3.75;;;3.40;;
65358;SDS011;52491;45.900;6.346;2023-03-01T10:03:51;3.80;;;3.38;;
65358;SDS011;52491;45.900;6.346;2023-03-01T10:06:24;5.90;;;3.60;;
65358;SDS011;52491;45.900;6.346;2023-03-01T10:09:00;3.75;;;3.20;;
65358;SDS011;52491;45.900;6.346;2023-03-01T10:11:32;3.50;;;3.13;;
65358;SDS011;52491;45.900;6.346;2023-03-01T10:14:05;3.08;;;2.83;;
65358;SDS011;52491;45.900;6.346;2023-03-01T10:19:38;3.92;;;2.83;;
65358;SDS011;52491;45.900;6.346;2023-03-01T10:22:11;3.00;;;2.80;;
65358;SDS011;52491;45.900;6.346;2023-03-01T10:24:46;3.08;;;2.78;;
65358;SDS011;52491;45.900;6.346;2023-03-01T10:27:21;4.47;;;2.58;;
65358;SDS011;52491;45.900;6.346;2023-03-01T10:30:00;3.45;;;2.92;;
65358;SDS011;52491;45.900;6.346;2023-03-01T10:32:27;2.40;;;2.20;;
65358;SDS011;52491;45.900;6.346;2023-03-01T10:34:54;3.13;;;2.83;;
65358;SDS011;52491;45.900;6.346;2023-03-01T10:37:20;4.70;;;2.95;;
65358;SDS011;52491;45.900;6.346;2023-03-01T10:40:21;2.75;;;2.30;;
65358;SDS011;52491;45.900;6.346;2023-03-01T10:42:46;2.90;;;2.70;;
65358;SDS011;52491;45.900;6.346;2023-03-01T10:53:27;3.30;;;3.00;;
65358;SDS011;52491;45.900;6.346;2023-03-01T10:56:03;2.83;;;2.63;;
65358;SDS011;52491;45.900;6.346;2023-03-01T10:58:31;2.40;;;2.20;;
65358;SDS011;52491;45.900;6.346;2023-03-01T11:01:03;2.70;;;2.47;;
65358;SDS011;52491;45.900;6.346;2023-03-01T11:06:36;6.63;;;4.75;;
65358;SDS011;52491;45.900;6.346;2023-03-01T11:09:17;25.05;;;20.48;;
65358;SDS011;52491;45.900;6.346;2023-03-01T11:11:45;35.25;;;28.70;;
65358;SDS011;52491;45.900;6.346;2023-03-01T11:14:21;37.70;;;31.05;;
65358;SDS011;52491;45.900;6.346;2023-03-01T11:16:57;36.25;;;28.02;;
65358;SDS011;52491;45.900;6.346;2023-03-01T11:19:25;33.67;;;26.15;;
65358;SDS011;52491;45.900;6.346;2023-03-01T11:24:44;21.67;;;19.25;;
65358;SDS011;52491;45.900;6.346;2023-03-01T11:27:17;23.40;;;18.08;;
65358;SDS011;52491;45.900;6.346;2023-03-01T11:30:03;20.25;;;16.67;;
65358;SDS011;52491;45.900;6.346;2023-03-01T11:33:23;24.08;;;15.63;;
65358;SDS011;52491;45.900;6.346;2023-03-01T11:35:27;16.55;;;13.98;;
65358;SDS011;52491;45.900;6.346;2023-03-01T11:40:27;16.70;;;13.80;;
65358;SDS011;52491;45.900;6.346;2023-03-01T11:45:43;15.75;;;12.23;;
65358;SDS011;52491;45.900;6.346;2023-03-01T11:51:09;18.60;;;16.60;;
65358;SDS011;52491;45.900;6.346;2023-03-01T12:01:51;17.40;;;15.52;;
65358;SDS011;52491;45.900;6.346;2023-03-01T12:13:17;16.80;;;13.43;;
65358;SDS011;52491;45.900;6.346;2023-03-01T12:24:28;10.55;;;9.50;;
65358;SDS011;52491;45.900;6.346;2023-03-01T12:30:34;11.25;;;10.13;;
65358;SDS011;52491;45.900;6.346;2023-03-01T12:36:08;13.27;;;11.18;;
65358;SDS011;52491;45.900;6.346;2023-03-01T12:39:29;11.52;;;10.43;;
65358;SDS011;52491;45.900;6.346;2023-03-01T12:50:16;11.35;;;10.18;;
65358;SDS011;52491;45.900;6.346;2023-03-01T12:52:52;11.80;;;9.00;;
65358;SDS011;52491;45.900;6.346;2023-03-01T13:06:17;9.27;;;8.32;;
65358;SDS011;52491;45.900;6.346;2023-03-01T13:11:34;9.55;;;8.63;;
65358;SDS011;52491;45.900;6.346;2023-03-01T13:15:01;8.02;;;7.10;;
65358;SDS011;52491;45.900;6.346;2023-03-01T13:16:55;10.10;;;8.60;;
65358;SDS011;52491;45.900;6.346;2023-03-01T13:19:28;11.10;;;9.02;;
65358;SDS011;52491;45.900;6.346;2023-03-01T13:21:55;9.70;;;8.70;;
65358;SDS011;52491;45.900;6.346;2023-03-01T13:29:51;11.32;;;10.13;;
65358;SDS011;52491;45.900;6.346;2023-03-01T13:32:22;11.70;;;10.48;;
65358;SDS011;52491;45.900;6.346;2023-03-01T13:34:52;10.45;;;9.35;;
65358;SDS011;52491;45.900;6.346;2023-03-01T13:37:20;11.65;;;9.52;;
65358;SDS011;52491;45.900;6.346;2023-03-01T13:39:48;14.35;;;12.07;;
65358;SDS011;52491;45.900;6.346;2023-03-01T13:42:35;15.02;;;11.60;;
65358;SDS011;52491;45.900;6.346;2023-03-01T13:45:04;11.63;;;10.38;;
65358;SDS011;52491;45.900;6.346;2023-03-01T13:47:39;10.95;;;9.48;;
65358;SDS011;52491;45.900;6.346;2023-03-01T13:50:15;11.57;;;10.38;;
65358;SDS011;52491;45.900;6.346;2023-03-01T13:52:48;11.20;;;10.10;;
65358;SDS011;52491;45.900;6.346;2023-03-01T13:55:19;11.45;;;10.00;;
65358;SDS011;52491;45.900;6.346;2023-03-01T13:57:49;12.07;;;9.98;;
65358;SDS011;52491;45.900;6.346;2023-03-01T14:03:13;14.25;;;9.85;;
65358;SDS011;52491;45.900;6.346;2023-03-01T14:05:42;12.30;;;11.00;;
65358;SDS011;52491;45.900;6.346;2023-03-01T14:08:32;11.10;;;10.00;;
65358;SDS011;52491;45.900;6.346;2023-03-01T14:19:02;11.05;;;9.93;;
65358;SDS011;52491;45.900;6.346;2023-03-01T14:21:33;10.98;;;9.95;;
65358;SDS011;52491;45.900;6.346;2023-03-01T14:24:00;10.40;;;9.23;;
65358;SDS011;52491;45.900;6.346;2023-03-01T14:26:26;9.93;;;9.02;;
65358;SDS011;52491;45.900;6.346;2023-03-01T14:28:51;11.68;;;10.52;;
65358;SDS011;52491;45.900;6.346;2023-03-01T14:31:31;10.38;;;9.38;;
65358;SDS011;52491;45.900;6.346;2023-03-01T14:34:02;10.23;;;8.68;;
65358;SDS011;52491;45.900;6.346;2023-03-01T14:36:31;11.32;;;10.23;;
65358;SDS011;52491;45.900;6.346;2023-03-01T14:38:59;12.15;;;10.88;;
65358;SDS011;52491;45.900;6.346;2023-03-01T14:41:30;9.82;;;8.95;;
65358;SDS011;52491;45.900;6.346;2023-03-01T14:44:06;10.02;;;9.02;;
65358;SDS011;52491;45.900;6.346;2023-03-01T14:46:41;12.65;;;11.38;;
65358;SDS011;52491;45.900;6.346;2023-03-01T14:51:54;10.52;;;8.70;;
65358;SDS011;52491;45.900;6.346;2023-03-01T14:54:42;13.25;;;9.65;;
65358;SDS011;52491;45.900;6.346;2023-03-01T14:57:21;11.98;;;9.50;;
65358;SDS011;52491;45.900;6.346;2023-03-01T14:59:50;10.95;;;9.75;;
65358;SDS011;52491;45.900;6.346;2023-03-01T15:02:19;12.20;;;10.90;;
65358;SDS011;52491;45.900;6.346;2023-03-01T15:04:49;10.75;;;9.65;;
65358;SDS011;52491;45.900;6.346;2023-03-01T15:07:17;11.00;;;9.90;;
65358;SDS011;52491;45.900;6.346;2023-03-01T15:09:44;11.38;;;10.18;;
65358;SDS011;52491;45.900;6.346;2023-03-01T15:14:55;11.57;;;10.40;;
65358;SDS011;52491;45.900;6.346;2023-03-01T15:17:31;12.15;;;10.90;;
65358;SDS011;52491;45.900;6.346;2023-03-01T15:20:03;12.07;;;10.88;;
65358;SDS011;52491;45.900;6.346;2023-03-01T15:22:32;12.73;;;11.43;;
65358;SDS011;52491;45.900;6.346;2023-03-01T15:24:58;14.15;;;12.30;;
65358;SDS011;52491;45.900;6.346;2023-03-01T15:27:24;11.05;;;9.98;;
65358;SDS011;52491;45.900;6.346;2023-03-01T15:29:53;13.35;;;12.02;;
65358;SDS011;52491;45.900;6.346;2023-03-01T15:32:30;13.75;;;10.98;;
65358;SDS011;52491;45.900;6.346;2023-03-01T15:35:32;13.50;;;12.05;;
65358;SDS011;52491;45.900;6.346;2023-03-01T15:41:03;12.57;;;11.27;;
65358;SDS011;52491;45.900;6.346;2023-03-01T15:43:41;14.10;;;12.07;;
65358;SDS011;52491;45.900;6.346;2023-03-01T15:46:13;12.30;;;11.05;;
65358;SDS011;52491;45.900;6.346;2023-03-01T15:49:03;12.30;;;11.10;;
65358;SDS011;52491;45.900;6.346;2023-03-01T15:51:35;12.30;;;11.10;;
65358;SDS011;52491;45.900;6.346;2023-03-01T15:54:06;12.40;;;11.13;;
65358;SDS011;52491;45.900;6.346;2023-03-01T15:56:40;13.25;;;11.70;;
65358;SDS011;52491;45.900;6.346;2023-03-01T15:59:05;12.13;;;10.93;;
65358;SDS011;52491;45.900;6.346;2023-03-01T16:01:36;16.73;;;12.68;;
65358;SDS011;52491;45.900;6.346;2023-03-01T16:04:02;14.05;;;11.50;;
65358;SDS011;52491;45.900;6.346;2023-03-01T16:06:28;13.20;;;11.63;;
65358;SDS011;52491;45.900;6.346;2023-03-01T16:08:53;12.73;;;11.27;;
65358;SDS011;52491;45.900;6.346;2023-03-01T16:11:20;13.40;;;11.98;;
65358;SDS011;52491;45.900;6.346;2023-03-01T16:13:46;13.18;;;11.77;;
65358;SDS011;52491;45.900;6.346;2023-03-01T16:16:12;14.38;;;12.88;;
65358;SDS011;52491;45.900;6.346;2023-03-01T16:18:44;14.13;;;12.48;;
65358;SDS011;52491;45.900;6.346;2023-03-01T16:21:22;14.52;;;13.10;;
65358;SDS011;52491;45.900;6.346;2023-03-01T16:23:49;14.35;;;11.82;;
65358;SDS011;52491;45.900;6.346;2023-03-01T16:26:15;15.57;;;13.20;;
65358;SDS011;52491;45.900;6.346;2023-03-01T16:28:41;14.75;;;13.32;;
65358;SDS011;52491;45.900;6.346;2023-03-01T16:31:08;16.88;;;13.13;;
65358;SDS011;52491;45.900;6.346;2023-03-01T16:33:35;15.10;;;13.00;;
65358;SDS011;52491;45.900;6.346;2023-03-01T16:36:01;15.20;;;13.60;;
65358;SDS011;52491;45.900;6.346;2023-03-01T16:38:37;15.07;;;13.15;;
65358;SDS011;52491;45.900;6.346;2023-03-01T16:41:03;14.25;;;12.80;;
65358;SDS011;52491;45.900;6.346;2023-03-01T16:43:30;15.18;;;12.38;;
65358;SDS011;52491;45.900;6.346;2023-03-01T16:45:56;13.35;;;11.93;;
65358;SDS011;52491;45.900;6.346;2023-03-01T16:48:24;13.88;;;12.52;;
65358;SDS011;52491;45.900;6.346;2023-03-01T16:50:57;17.05;;;13.48;;
65358;SDS011;52491;45.900;6.346;2023-03-01T16:53:23;13.98;;;12.48;;
65358;SDS011;52491;45.900;6.346;2023-03-01T16:55:53;14.38;;;12.90;;
65358;SDS011;52491;45.900;6.346;2023-03-01T16:58:21;13.32;;;11.98;;
65358;SDS011;52491;45.900;6.346;2023-03-01T17:00:50;12.25;;;8.25;;
65358;SDS011;52491;45.900;6.346;2023-03-01T17:03:16;11.40;;;7.78;;
65358;SDS011;52491;45.900;6.346;2023-03-01T17:05:42;8.20;;;6.38;;